sensor_id;sensor_type;location;lat;lon;timestamp;P1;durP1;ratioP1;P2;durP2;ratioP2
2562;SDS011;1291;51.420;6.970;2022-09-24T00:01:07;9.93;;;8.65;;
2562;SDS011;1291;51.420;6.970;2022-09-24T00:03:37;11.32;;;8.38;;
2562;SDS011;1291;51.420;6.970;2022-09-24T00:06:05;12.05;;;9.30;;
2562;SDS011;1291;51.420;6.970;2022-09-24T00:08:31;12.23;;;9.57;;
2562;SDS011;1291;51.420;6.970;2022-09-24T00:10:59;14.85;;;9.70;;
2562;SDS011;1291;51.420;6.970;2022-09-24T00:13:27;12.38;;;9.75;;
2562;SDS011;1291;51.420;6.970;2022-09-24T00:15:52;13.85;;;11.25;;
2562;SDS011;1291;51.420;6.970;2022-09-24T00:18:18;20.15;;;12.10;;
2562;SDS011;1291;51.420;6.970;2022-09-24T00:20:45;14.52;;;12.02;;
2562;SDS011;1291;51.420;6.970;2022-09-24T00:23:11;15.40;;;11.70;;
2562;SDS011;1291;51.420;6.970;2022-09-24T00:25:43;18.52;;;12.45;;
2562;SDS011;1291;51.420;6.970;2022-09-24T00:28:30;15.25;;;12.77;;
2562;SDS011;1291;51.420;6.970;2022-09-24T00:30:56;16.63;;;11.90;;
2562;SDS011;1291;51.420;6.970;2022-09-24T00:33:25;14.55;;;12.68;;
2562;SDS011;1291;51.420;6.970;2022-09-24T00:35:52;17.90;;;12.27;;
2562;SDS011;1291;51.420;6.970;2022-09-24T00:38:27;14.90;;;11.95;;
2562;SDS011;1291;51.420;6.970;2022-09-24T00:40:53;15.70;;;12.77;;
2562;SDS011;1291;51.420;6.970;2022-09-24T00:43:37;18.08;;;12.75;;
2562;SDS011;1291;51.420;6.970;2022-09-24T00:46:07;17.48;;;12.55;;
2562;SDS011;1291;51.420;6.970;2022-09-24T00:49:00;18.17;;;14.20;;
2562;SDS011;1291;51.420;6.970;2022-09-24T00:51:29;16.02;;;13.45;;
2562;SDS011;1291;51.420;6.970;2022-09-24T00:53:58;16.90;;;13.90;;
2562;SDS011;1291;51.420;6.970;2022-09-24T00:56:35;15.02;;;13.32;;
2562;SDS011;1291;51.420;6.970;2022-09-24T00:59:03;17.40;;;14.50;;
2562;SDS011;1291;51.420;6.970;2022-09-24T01:01:31;21.23;;;15.15;;
2562;SDS011;1291;51.420;6.970;2022-09-24T01:03:57;16.55;;;14.55;;
2562;SDS011;1291;51.420;6.970;2022-09-24T01:06:28;19.88;;;16.13;;
2562;SDS011;1291;51.420;6.970;2022-09-24T01:08:53;20.52;;;15.48;;
2562;SDS011;1291;51.420;6.970;2022-09-24T01:28:28;15.70;;;13.85;;
2562;SDS011;1291;51.420;6.970;2022-09-24T01:31:07;23.27;;;14.18;;
2562;SDS011;1291;51.420;6.970;2022-09-24T01:33:41;18.20;;;13.90;;
2562;SDS011;1291;51.420;6.970;2022-09-24T01:36:10;18.48;;;14.00;;
2562;SDS011;1291;51.420;6.970;2022-09-24T01:38:39;17.00;;;13.57;;
2562;SDS011;1291;51.420;6.970;2022-09-24T01:41:08;18.45;;;14.32;;
2562;SDS011;1291;51.420;6.970;2022-09-24T01:43:35;17.38;;;14.18;;
2562;SDS011;1291;51.420;6.970;2022-09-24T01:46:02;18.90;;;14.30;;
2562;SDS011;1291;51.420;6.970;2022-09-24T01:48:30;16.65;;;13.60;;
2562;SDS011;1291;51.420;6.970;2022-09-24T01:51:07;19.13;;;14.77;;
2562;SDS011;1291;51.420;6.970;2022-09-24T01:54:20;19.88;;;14.93;;
2562;SDS011;1291;51.420;6.970;2022-09-24T01:59:03;17.77;;;13.63;;
2562;SDS011;1291;51.420;6.970;2022-09-24T02:04:23;18.13;;;13.93;;
2562;SDS011;1291;51.420;6.970;2022-09-24T02:07:04;18.42;;;13.82;;
2562;SDS011;1291;51.420;6.970;2022-09-24T02:09:38;17.50;;;13.80;;
2562;SDS011;1291;51.420;6.970;2022-09-24T02:17:52;19.75;;;14.63;;
2562;SDS011;1291;51.420;6.970;2022-09-24T02:20:20;19.35;;;14.68;;
2562;SDS011;1291;51.420;6.970;2022-09-24T02:22:49;17.98;;;14.18;;
2562;SDS011;1291;51.420;6.970;2022-09-24T02:25:19;18.80;;;14.32;;
2562;SDS011;1291;51.420;6.970;2022-09-24T02:27:50;19.13;;;14.70;;
2562;SDS011;1291;51.420;6.970;2022-09-24T02:30:19;17.90;;;14.50;;
2562;SDS011;1291;51.420;6.970;2022-09-24T02:32:44;19.02;;;14.30;;
2562;SDS011;1291;51.420;6.970;2022-09-24T02:35:11;19.88;;;14.43;;
2562;SDS011;1291;51.420;6.970;2022-09-24T02:37:39;18.05;;;14.07;;
2562;SDS011;1291;51.420;6.970;2022-09-24T02:40:07;20.55;;;16.00;;
2562;SDS011;1291;51.420;6.970;2022-09-24T02:42:35;17.90;;;15.00;;
2562;SDS011;1291;51.420;6.970;2022-09-24T02:45:02;19.63;;;14.05;;
2562;SDS011;1291;51.420;6.970;2022-09-24T02:47:28;19.63;;;14.63;;
2562;SDS011;1291;51.420;6.970;2022-09-24T02:49:54;17.63;;;14.02;;
2562;SDS011;1291;51.420;6.970;2022-09-24T02:52:20;18.23;;;14.48;;
2562;SDS011;1291;51.420;6.970;2022-09-24T02:54:46;17.90;;;14.80;;
2562;SDS011;1291;51.420;6.970;2022-09-24T02:57:12;19.40;;;14.43;;
2562;SDS011;1291;51.420;6.970;2022-09-24T02:59:37;15.80;;;13.90;;
2562;SDS011;1291;51.420;6.970;2022-09-24T03:02:03;16.33;;;13.45;;
2562;SDS011;1291;51.420;6.970;2022-09-24T03:04:29;19.77;;;15.23;;
2562;SDS011;1291;51.420;6.970;2022-09-24T03:06:55;16.60;;;14.30;;
2562;SDS011;1291;51.420;6.970;2022-09-24T03:09:21;19.48;;;14.50;;
2562;SDS011;1291;51.420;6.970;2022-09-24T03:11:46;17.52;;;14.80;;
2562;SDS011;1291;51.420;6.970;2022-09-24T03:14:12;19.27;;;14.30;;
2562;SDS011;1291;51.420;6.970;2022-09-24T03:16:37;17.85;;;14.38;;
2562;SDS011;1291;51.420;6.970;2022-09-24T03:19:03;19.95;;;15.48;;
2562;SDS011;1291;51.420;6.970;2022-09-24T03:21:29;18.70;;;14.75;;
2562;SDS011;1291;51.420;6.970;2022-09-24T03:23:55;18.70;;;14.27;;
2562;SDS011;1291;51.420;6.970;2022-09-24T03:26:20;17.73;;;14.50;;
2562;SDS011;1291;51.420;6.970;2022-09-24T03:28:46;20.13;;;15.57;;
2562;SDS011;1291;51.420;6.970;2022-09-24T03:31:11;19.58;;;14.85;;
2562;SDS011;1291;51.420;6.970;2022-09-24T03:33:38;22.00;;;15.30;;
2562;SDS011;1291;51.420;6.970;2022-09-24T03:36:10;20.85;;;14.93;;
2562;SDS011;1291;51.420;6.970;2022-09-24T03:38:37;19.10;;;14.05;;
2562;SDS011;1291;51.420;6.970;2022-09-24T03:41:05;22.08;;;14.48;;
2562;SDS011;1291;51.420;6.970;2022-09-24T03:43:32;19.52;;;14.65;;
2562;SDS011;1291;51.420;6.970;2022-09-24T03:45:58;19.77;;;15.48;;
2562;SDS011;1291;51.420;6.970;2022-09-24T03:48:24;19.10;;;14.55;;
2562;SDS011;1291;51.420;6.970;2022-09-24T03:50:51;17.02;;;14.50;;
2562;SDS011;1291;51.420;6.970;2022-09-24T03:53:17;21.75;;;14.32;;
2562;SDS011;1291;51.420;6.970;2022-09-24T03:55:43;19.23;;;14.40;;
2562;SDS011;1291;51.420;6.970;2022-09-24T03:58:14;19.42;;;14.95;;
2562;SDS011;1291;51.420;6.970;2022-09-24T04:00:40;18.17;;;14.20;;
2562;SDS011;1291;51.420;6.970;2022-09-24T04:03:06;18.02;;;14.55;;
2562;SDS011;1291;51.420;6.970;2022-09-24T04:05:32;17.65;;;14.35;;
2562;SDS011;1291;51.420;6.970;2022-09-24T04:07:58;19.08;;;15.18;;
2562;SDS011;1291;51.420;6.970;2022-09-24T04:10:25;18.52;;;14.15;;
2562;SDS011;1291;51.420;6.970;2022-09-24T04:12:52;19.17;;;14.80;;
2562;SDS011;1291;51.420;6.970;2022-09-24T04:15:17;22.33;;;15.70;;
2562;SDS011;1291;51.420;6.970;2022-09-24T04:17:53;22.30;;;15.77;;
2562;SDS011;1291;51.420;6.970;2022-09-24T04:20:21;19.65;;;15.38;;
2562;SDS011;1291;51.420;6.970;2022-09-24T04:22:49;20.02;;;15.35;;
2562;SDS011;1291;51.420;6.970;2022-09-24T04:25:16;18.77;;;15.02;;
2562;SDS011;1291;51.420;6.970;2022-09-24T04:27:45;21.95;;;15.80;;
2562;SDS011;1291;51.420;6.970;2022-09-24T04:30:11;22.50;;;15.75;;
2562;SDS011;1291;51.420;6.970;2022-09-24T04:32:41;17.48;;;15.20;;
2562;SDS011;1291;51.420;6.970;2022-09-24T04:35:07;18.17;;;15.00;;
2562;SDS011;1291;51.420;6.970;2022-09-24T04:37:33;21.45;;;15.55;;
2562;SDS011;1291;51.420;6.970;2022-09-24T04:39:59;18.60;;;15.38;;
2562;SDS011;1291;51.420;6.970;2022-09-24T04:42:25;21.50;;;16.00;;
2562;SDS011;1291;51.420;6.970;2022-09-24T04:44:51;19.75;;;16.40;;
2562;SDS011;1291;51.420;6.970;2022-09-24T04:47:17;19.75;;;14.90;;
2562;SDS011;1291;51.420;6.970;2022-09-24T04:49:43;23.05;;;15.95;;
2562;SDS011;1291;51.420;6.970;2022-09-24T04:52:13;20.27;;;16.27;;
2562;SDS011;1291;51.420;6.970;2022-09-24T04:54:40;21.10;;;15.27;;
2562;SDS011;1291;51.420;6.970;2022-09-24T04:57:12;19.88;;;14.73;;
2562;SDS011;1291;51.420;6.970;2022-09-24T04:59:38;20.00;;;15.52;;
2562;SDS011;1291;51.420;6.970;2022-09-24T05:02:05;21.27;;;15.68;;
2562;SDS011;1291;51.420;6.970;2022-09-24T05:04:33;24.75;;;16.23;;
2562;SDS011;1291;51.420;6.970;2022-09-24T05:07:00;22.45;;;15.85;;
2562;SDS011;1291;51.420;6.970;2022-09-24T05:09:26;21.42;;;16.17;;
2562;SDS011;1291;51.420;6.970;2022-09-24T05:11:52;20.00;;;15.63;;
2562;SDS011;1291;51.420;6.970;2022-09-24T05:14:18;20.40;;;15.57;;
2562;SDS011;1291;51.420;6.970;2022-09-24T05:16:43;20.08;;;15.40;;
2562;SDS011;1291;51.420;6.970;2022-09-24T05:19:08;22.70;;;17.33;;
2562;SDS011;1291;51.420;6.970;2022-09-24T05:21:34;25.00;;;18.55;;
2562;SDS011;1291;51.420;6.970;2022-09-24T05:23:59;26.95;;;20.50;;
2562;SDS011;1291;51.420;6.970;2022-09-24T05:26:26;28.20;;;22.52;;
2562;SDS011;1291;51.420;6.970;2022-09-24T05:29:10;24.77;;;19.83;;
2562;SDS011;1291;51.420;6.970;2022-09-24T05:31:35;25.88;;;20.13;;
2562;SDS011;1291;51.420;6.970;2022-09-24T05:34:01;25.63;;;18.08;;
2562;SDS011;1291;51.420;6.970;2022-09-24T05:36:28;26.73;;;17.15;;
2562;SDS011;1291;51.420;6.970;2022-09-24T05:38:53;24.48;;;15.50;;
2562;SDS011;1291;51.420;6.970;2022-09-24T05:41:19;19.35;;;14.75;;
2562;SDS011;1291;51.420;6.970;2022-09-24T05:43:45;21.95;;;15.45;;
2562;SDS011;1291;51.420;6.970;2022-09-24T05:46:10;19.77;;;16.00;;
2562;SDS011;1291;51.420;6.970;2022-09-24T05:48:36;21.83;;;15.63;;
2562;SDS011;1291;51.420;6.970;2022-09-24T05:51:02;23.73;;;17.10;;
2562;SDS011;1291;51.420;6.970;2022-09-24T05:53:28;23.17;;;16.73;;
2562;SDS011;1291;51.420;6.970;2022-09-24T05:55:54;22.05;;;16.40;;
2562;SDS011;1291;51.420;6.970;2022-09-24T05:58:19;21.65;;;16.35;;
2562;SDS011;1291;51.420;6.970;2022-09-24T06:00:45;23.55;;;16.80;;
2562;SDS011;1291;51.420;6.970;2022-09-24T06:03:12;21.30;;;16.15;;
2562;SDS011;1291;51.420;6.970;2022-09-24T06:05:42;20.30;;;16.35;;
2562;SDS011;1291;51.420;6.970;2022-09-24T06:08:13;22.20;;;15.68;;
2562;SDS011;1291;51.420;6.970;2022-09-24T06:10:43;22.05;;;16.02;;
2562;SDS011;1291;51.420;6.970;2022-09-24T06:13:12;22.63;;;16.10;;
2562;SDS011;1291;51.420;6.970;2022-09-24T06:15:41;22.65;;;16.40;;
2562;SDS011;1291;51.420;6.970;2022-09-24T06:18:07;23.05;;;17.05;;
2562;SDS011;1291;51.420;6.970;2022-09-24T06:20:33;21.38;;;15.48;;
2562;SDS011;1291;51.420;6.970;2022-09-24T06:22:59;21.17;;;15.82;;
2562;SDS011;1291;51.420;6.970;2022-09-24T06:25:26;23.60;;;16.58;;
2562;SDS011;1291;51.420;6.970;2022-09-24T06:27:57;22.58;;;15.93;;
2562;SDS011;1291;51.420;6.970;2022-09-24T06:30:28;26.63;;;17.10;;
2562;SDS011;1291;51.420;6.970;2022-09-24T06:33:09;22.23;;;16.63;;
2562;SDS011;1291;51.420;6.970;2022-09-24T06:35:36;22.63;;;16.52;;
2562;SDS011;1291;51.420;6.970;2022-09-24T06:38:05;21.60;;;15.50;;
2562;SDS011;1291;51.420;6.970;2022-09-24T06:40:33;19.58;;;14.93;;
2562;SDS011;1291;51.420;6.970;2022-09-24T06:42:59;23.92;;;17.15;;
2562;SDS011;1291;51.420;6.970;2022-09-24T06:45:24;21.75;;;16.60;;
2562;SDS011;1291;51.420;6.970;2022-09-24T06:47:54;23.17;;;16.02;;
2562;SDS011;1291;51.420;6.970;2022-09-24T06:50:21;21.38;;;15.75;;
2562;SDS011;1291;51.420;6.970;2022-09-24T06:52:49;26.67;;;18.98;;
2562;SDS011;1291;51.420;6.970;2022-09-24T06:55:14;25.15;;;20.40;;
2562;SDS011;1291;51.420;6.970;2022-09-24T06:57:40;25.25;;;19.15;;
2562;SDS011;1291;51.420;6.970;2022-09-24T07:00:06;24.00;;;17.30;;
2562;SDS011;1291;51.420;6.970;2022-09-24T07:02:32;22.70;;;16.90;;
2562;SDS011;1291;51.420;6.970;2022-09-24T07:04:58;22.30;;;14.57;;
2562;SDS011;1291;51.420;6.970;2022-09-24T07:07:23;20.25;;;14.32;;
2562;SDS011;1291;51.420;6.970;2022-09-24T07:09:57;21.60;;;15.77;;
2562;SDS011;1291;51.420;6.970;2022-09-24T07:12:25;20.58;;;14.68;;
2562;SDS011;1291;51.420;6.970;2022-09-24T07:14:52;23.88;;;15.35;;
2562;SDS011;1291;51.420;6.970;2022-09-24T07:17:18;20.20;;;14.93;;
2562;SDS011;1291;51.420;6.970;2022-09-24T07:19:43;21.33;;;14.77;;
2562;SDS011;1291;51.420;6.970;2022-09-24T07:22:09;18.80;;;13.88;;
2562;SDS011;1291;51.420;6.970;2022-09-24T07:24:34;20.08;;;14.88;;
2562;SDS011;1291;51.420;6.970;2022-09-24T07:27:02;19.70;;;14.07;;
2562;SDS011;1291;51.420;6.970;2022-09-24T07:29:28;22.05;;;15.52;;
2562;SDS011;1291;51.420;6.970;2022-09-24T07:31:53;17.50;;;14.48;;
2562;SDS011;1291;51.420;6.970;2022-09-24T07:34:19;16.13;;;13.32;;
2562;SDS011;1291;51.420;6.970;2022-09-24T07:36:44;20.48;;;15.73;;
2562;SDS011;1291;51.420;6.970;2022-09-24T07:39:10;20.63;;;13.10;;
2562;SDS011;1291;51.420;6.970;2022-09-24T07:41:35;20.25;;;14.20;;
2562;SDS011;1291;51.420;6.970;2022-09-24T07:44:01;19.27;;;14.07;;
2562;SDS011;1291;51.420;6.970;2022-09-24T07:46:26;22.30;;;15.35;;
2562;SDS011;1291;51.420;6.970;2022-09-24T07:48:52;21.70;;;13.93;;
2562;SDS011;1291;51.420;6.970;2022-09-24T07:51:20;20.33;;;15.05;;
2562;SDS011;1291;51.420;6.970;2022-09-24T07:53:46;18.67;;;13.05;;
2562;SDS011;1291;51.420;6.970;2022-09-24T07:56:12;17.73;;;12.77;;
2562;SDS011;1291;51.420;6.970;2022-09-24T07:58:37;19.83;;;13.60;;
2562;SDS011;1291;51.420;6.970;2022-09-24T08:01:06;20.13;;;13.55;;
2562;SDS011;1291;51.420;6.970;2022-09-24T08:03:31;17.05;;;13.18;;
2562;SDS011;1291;51.420;6.970;2022-09-24T08:05:57;17.63;;;13.23;;
2562;SDS011;1291;51.420;6.970;2022-09-24T08:08:24;30.55;;;13.70;;
2562;SDS011;1291;51.420;6.970;2022-09-24T08:10:49;16.33;;;13.88;;
2562;SDS011;1291;51.420;6.970;2022-09-24T08:13:15;15.52;;;12.77;;
2562;SDS011;1291;51.420;6.970;2022-09-24T08:15:41;16.63;;;12.95;;
2562;SDS011;1291;51.420;6.970;2022-09-24T08:18:06;17.85;;;13.82;;
2562;SDS011;1291;51.420;6.970;2022-09-24T08:20:32;16.08;;;13.25;;
2562;SDS011;1291;51.420;6.970;2022-09-24T08:23:02;14.68;;;12.77;;
2562;SDS011;1291;51.420;6.970;2022-09-24T08:25:29;17.45;;;12.85;;
2562;SDS011;1291;51.420;6.970;2022-09-24T08:27:56;15.25;;;12.65;;
2562;SDS011;1291;51.420;6.970;2022-09-24T08:30:28;16.95;;;13.40;;
2562;SDS011;1291;51.420;6.970;2022-09-24T08:32:55;17.85;;;12.88;;
2562;SDS011;1291;51.420;6.970;2022-09-24T08:35:21;17.13;;;13.18;;
2562;SDS011;1291;51.420;6.970;2022-09-24T08:37:46;16.63;;;13.30;;
2562;SDS011;1291;51.420;6.970;2022-09-24T08:40:15;17.08;;;11.73;;
2562;SDS011;1291;51.420;6.970;2022-09-24T08:42:48;17.63;;;13.68;;
2562;SDS011;1291;51.420;6.970;2022-09-24T08:45:19;18.70;;;13.48;;
2562;SDS011;1291;51.420;6.970;2022-09-24T08:51:19;15.73;;;12.40;;
2562;SDS011;1291;51.420;6.970;2022-09-24T08:56:17;15.82;;;13.15;;
2562;SDS011;1291;51.420;6.970;2022-09-24T08:58:57;16.30;;;12.38;;
2562;SDS011;1291;51.420;6.970;2022-09-24T09:01:42;14.38;;;11.90;;
2562;SDS011;1291;51.420;6.970;2022-09-24T09:10:13;18.10;;;10.95;;
2562;SDS011;1291;51.420;6.970;2022-09-24T09:12:55;16.63;;;11.73;;
2562;SDS011;1291;51.420;6.970;2022-09-24T09:15:34;15.30;;;12.23;;
2562;SDS011;1291;51.420;6.970;2022-09-24T09:18:13;16.17;;;12.20;;
2562;SDS011;1291;51.420;6.970;2022-09-24T09:20:44;15.57;;;11.25;;
2562;SDS011;1291;51.420;6.970;2022-09-24T09:25:40;15.98;;;10.88;;
2562;SDS011;1291;51.420;6.970;2022-09-24T09:28:10;14.82;;;11.57;;
2562;SDS011;1291;51.420;6.970;2022-09-24T09:30:43;13.10;;;10.75;;
2562;SDS011;1291;51.420;6.970;2022-09-24T09:36:00;15.60;;;11.25;;
2562;SDS011;1291;51.420;6.970;2022-09-24T09:46:54;13.05;;;10.55;;
2562;SDS011;1291;51.420;6.970;2022-09-24T09:49:25;13.88;;;11.10;;
2562;SDS011;1291;51.420;6.970;2022-09-24T09:51:55;13.18;;;11.18;;
2562;SDS011;1291;51.420;6.970;2022-09-24T09:54:34;16.05;;;11.32;;
2562;SDS011;1291;51.420;6.970;2022-09-24T09:57:00;15.05;;;10.90;;
2562;SDS011;1291;51.420;6.970;2022-09-24T09:59:26;14.60;;;10.80;;
2562;SDS011;1291;51.420;6.970;2022-09-24T10:01:54;12.93;;;11.18;;
2562;SDS011;1291;51.420;6.970;2022-09-24T10:07:09;18.02;;;11.38;;
2562;SDS011;1291;51.420;6.970;2022-09-24T10:09:37;12.48;;;9.93;;
2562;SDS011;1291;51.420;6.970;2022-09-24T10:15:21;12.85;;;9.45;;
2562;SDS011;1291;51.420;6.970;2022-09-24T10:17:42;9.77;;;8.77;;
2562;SDS011;1291;51.420;6.970;2022-09-24T10:22:46;11.13;;;8.38;;
2562;SDS011;1291;51.420;6.970;2022-09-24T10:25:15;10.85;;;9.32;;
2562;SDS011;1291;51.420;6.970;2022-09-24T10:27:44;11.02;;;8.98;;
2562;SDS011;1291;51.420;6.970;2022-09-24T10:30:12;11.50;;;8.57;;
2562;SDS011;1291;51.420;6.970;2022-09-24T10:32:59;11.07;;;8.15;;
2562;SDS011;1291;51.420;6.970;2022-09-24T10:35:35;9.13;;;7.68;;
2562;SDS011;1291;51.420;6.970;2022-09-24T10:38:13;11.00;;;7.78;;
2562;SDS011;1291;51.420;6.970;2022-09-24T10:40:44;10.82;;;8.30;;
2562;SDS011;1291;51.420;6.970;2022-09-24T10:43:14;10.23;;;7.95;;
2562;SDS011;1291;51.420;6.970;2022-09-24T10:46:35;8.40;;;7.30;;
2562;SDS011;1291;51.420;6.970;2022-09-24T10:48:43;8.00;;;6.30;;
2562;SDS011;1291;51.420;6.970;2022-09-24T10:56:47;9.70;;;6.88;;
2562;SDS011;1291;51.420;6.970;2022-09-24T11:04:50;10.27;;;8.50;;
2562;SDS011;1291;51.420;6.970;2022-09-24T11:34:58;10.48;;;9.05;;
2562;SDS011;1291;51.420;6.970;2022-09-24T11:56:51;13.38;;;11.40;;
2562;SDS011;1291;51.420;6.970;2022-09-24T12:12:56;10.82;;;7.88;;
2562;SDS011;1291;51.420;6.970;2022-09-24T12:15:29;12.48;;;8.30;;
2562;SDS011;1291;51.420;6.970;2022-09-24T12:18:20;11.02;;;8.02;;
2562;SDS011;1291;51.420;6.970;2022-09-24T12:20:51;11.63;;;7.93;;
2562;SDS011;1291;51.420;6.970;2022-09-24T12:23:19;8.48;;;7.00;;
2562;SDS011;1291;51.420;6.970;2022-09-24T12:25:48;8.75;;;6.70;;
2562;SDS011;1291;51.420;6.970;2022-09-24T12:28:15;9.63;;;7.53;;
2562;SDS011;1291;51.420;6.970;2022-09-24T12:31:03;9.73;;;6.80;;
2562;SDS011;1291;51.420;6.970;2022-09-24T12:37:00;10.57;;;6.85;;
2562;SDS011;1291;51.420;6.970;2022-09-24T12:39:35;8.38;;;6.07;;
2562;SDS011;1291;51.420;6.970;2022-09-24T12:42:26;8.95;;;6.85;;
2562;SDS011;1291;51.420;6.970;2022-09-24T12:44:58;7.88;;;7.07;;
2562;SDS011;1291;51.420;6.970;2022-09-24T12:47:29;7.70;;;5.78;;
2562;SDS011;1291;51.420;6.970;2022-09-24T12:50:01;10.40;;;6.72;;
2562;SDS011;1291;51.420;6.970;2022-09-24T12:55:16;7.80;;;6.38;;
2562;SDS011;1291;51.420;6.970;2022-09-24T12:57:54;7.32;;;6.57;;
2562;SDS011;1291;51.420;6.970;2022-09-24T13:00:42;7.45;;;6.55;;
2562;SDS011;1291;51.420;6.970;2022-09-24T13:03:27;9.35;;;7.15;;
2562;SDS011;1291;51.420;6.970;2022-09-24T13:05:54;8.48;;;6.70;;
2562;SDS011;1291;51.420;6.970;2022-09-24T13:08:24;9.02;;;7.45;;
2562;SDS011;1291;51.420;6.970;2022-09-24T13:13:57;8.30;;;6.93;;
2562;SDS011;1291;51.420;6.970;2022-09-24T13:16:24;7.70;;;6.50;;
2562;SDS011;1291;51.420;6.970;2022-09-24T13:18:50;9.55;;;7.57;;
2562;SDS011;1291;51.420;6.970;2022-09-24T13:21:20;10.45;;;7.75;;
2562;SDS011;1291;51.420;6.970;2022-09-24T13:23:48;12.73;;;7.53;;
2562;SDS011;1291;51.420;6.970;2022-09-24T13:36:42;11.13;;;8.30;;
2562;SDS011;1291;51.420;6.970;2022-09-24T13:44:47;10.10;;;8.60;;
2562;SDS011;1291;51.420;6.970;2022-09-24T13:52:33;12.68;;;8.70;;
2562;SDS011;1291;51.420;6.970;2022-09-24T13:55:10;12.15;;;8.77;;
2562;SDS011;1291;51.420;6.970;2022-09-24T13:57:43;11.18;;;9.07;;
2562;SDS011;1291;51.420;6.970;2022-09-24T14:02:35;12.18;;;9.30;;
2562;SDS011;1291;51.420;6.970;2022-09-24T14:05:02;12.00;;;9.45;;
2562;SDS011;1291;51.420;6.970;2022-09-24T14:07:31;11.48;;;9.18;;
2562;SDS011;1291;51.420;6.970;2022-09-24T14:10:00;11.38;;;9.38;;
2562;SDS011;1291;51.420;6.970;2022-09-24T14:12:31;11.95;;;9.00;;
2562;SDS011;1291;51.420;6.970;2022-09-24T14:14:57;10.55;;;9.38;;
2562;SDS011;1291;51.420;6.970;2022-09-24T14:17:23;13.18;;;9.90;;
2562;SDS011;1291;51.420;6.970;2022-09-24T14:19:55;10.88;;;9.30;;
2562;SDS011;1291;51.420;6.970;2022-09-24T14:27:33;12.38;;;10.52;;
2562;SDS011;1291;51.420;6.970;2022-09-24T14:30:06;12.65;;;9.73;;
2562;SDS011;1291;51.420;6.970;2022-09-24T14:32:41;10.98;;;9.82;;
2562;SDS011;1291;51.420;6.970;2022-09-24T14:37:36;14.20;;;10.68;;
2562;SDS011;1291;51.420;6.970;2022-09-24T14:40:11;12.23;;;9.25;;
2562;SDS011;1291;51.420;6.970;2022-09-24T14:42:41;13.30;;;9.60;;
2562;SDS011;1291;51.420;6.970;2022-09-24T14:45:58;12.40;;;10.40;;
2562;SDS011;1291;51.420;6.970;2022-09-24T14:50:40;12.00;;;10.15;;
2562;SDS011;1291;51.420;6.970;2022-09-24T14:53:17;11.85;;;10.50;;
2562;SDS011;1291;51.420;6.970;2022-09-24T14:55:47;12.65;;;10.85;;
2562;SDS011;1291;51.420;6.970;2022-09-24T15:00:59;12.98;;;11.23;;
2562;SDS011;1291;51.420;6.970;2022-09-24T15:03:38;11.70;;;10.50;;
2562;SDS011;1291;51.420;6.970;2022-09-24T15:06:26;14.52;;;12.13;;
2562;SDS011;1291;51.420;6.970;2022-09-24T15:09:03;13.50;;;11.77;;
2562;SDS011;1291;51.420;6.970;2022-09-24T15:11:32;12.85;;;11.38;;
2562;SDS011;1291;51.420;6.970;2022-09-24T15:16:40;15.25;;;11.10;;
2562;SDS011;1291;51.420;6.970;2022-09-24T15:19:14;12.10;;;10.63;;
2562;SDS011;1291;51.420;6.970;2022-09-24T15:21:43;11.32;;;10.15;;
2562;SDS011;1291;51.420;6.970;2022-09-24T15:24:10;15.55;;;11.90;;
2562;SDS011;1291;51.420;6.970;2022-09-24T15:26:36;15.80;;;11.95;;
2562;SDS011;1291;51.420;6.970;2022-09-24T15:29:05;14.75;;;12.63;;
2562;SDS011;1291;51.420;6.970;2022-09-24T15:31:31;14.13;;;12.52;;
2562;SDS011;1291;51.420;6.970;2022-09-24T15:33:56;15.00;;;12.23;;
2562;SDS011;1291;51.420;6.970;2022-09-24T15:36:22;15.35;;;13.57;;
2562;SDS011;1291;51.420;6.970;2022-09-24T15:38:51;15.52;;;12.73;;
2562;SDS011;1291;51.420;6.970;2022-09-24T15:41:23;13.02;;;11.63;;
2562;SDS011;1291;51.420;6.970;2022-09-24T15:43:48;15.70;;;13.65;;
2562;SDS011;1291;51.420;6.970;2022-09-24T15:46:13;15.05;;;13.43;;
2562;SDS011;1291;51.420;6.970;2022-09-24T15:48:39;15.50;;;13.02;;
2562;SDS011;1291;51.420;6.970;2022-09-24T15:51:04;13.27;;;11.88;;
2562;SDS011;1291;51.420;6.970;2022-09-24T15:53:30;14.80;;;12.10;;
2562;SDS011;1291;51.420;6.970;2022-09-24T15:55:57;14.07;;;12.27;;
2562;SDS011;1291;51.420;6.970;2022-09-24T15:58:27;18.58;;;11.95;;
2562;SDS011;1291;51.420;6.970;2022-09-24T16:00:53;15.15;;;13.02;;
2562;SDS011;1291;51.420;6.970;2022-09-24T16:03:26;13.63;;;12.23;;
2562;SDS011;1291;51.420;6.970;2022-09-24T16:05:53;15.70;;;12.95;;
2562;SDS011;1291;51.420;6.970;2022-09-24T16:08:19;14.10;;;12.60;;
2562;SDS011;1291;51.420;6.970;2022-09-24T16:10:45;14.38;;;12.88;;
2562;SDS011;1291;51.420;6.970;2022-09-24T16:13:14;13.32;;;11.48;;
2562;SDS011;1291;51.420;6.970;2022-09-24T16:15:41;15.52;;;12.55;;
2562;SDS011;1291;51.420;6.970;2022-09-24T16:18:08;16.33;;;11.50;;
2562;SDS011;1291;51.420;6.970;2022-09-24T16:20:40;14.70;;;11.45;;
2562;SDS011;1291;51.420;6.970;2022-09-24T16:23:09;12.95;;;10.38;;
2562;SDS011;1291;51.420;6.970;2022-09-24T16:25:38;13.63;;;11.88;;
2562;SDS011;1291;51.420;6.970;2022-09-24T16:28:03;13.30;;;10.90;;
2562;SDS011;1291;51.420;6.970;2022-09-24T16:30:29;12.88;;;10.57;;
2562;SDS011;1291;51.420;6.970;2022-09-24T16:32:54;12.20;;;10.73;;
2562;SDS011;1291;51.420;6.970;2022-09-24T16:35:19;12.43;;;10.52;;
2562;SDS011;1291;51.420;6.970;2022-09-24T16:37:45;11.88;;;10.00;;
2562;SDS011;1291;51.420;6.970;2022-09-24T16:40:10;14.73;;;10.52;;
2562;SDS011;1291;51.420;6.970;2022-09-24T16:42:36;14.30;;;11.32;;
2562;SDS011;1291;51.420;6.970;2022-09-24T16:45:02;13.75;;;10.85;;
2562;SDS011;1291;51.420;6.970;2022-09-24T16:47:27;14.57;;;11.07;;
2562;SDS011;1291;51.420;6.970;2022-09-24T16:49:53;12.50;;;10.55;;
2562;SDS011;1291;51.420;6.970;2022-09-24T16:52:18;14.95;;;11.35;;
2562;SDS011;1291;51.420;6.970;2022-09-24T16:54:47;11.32;;;10.18;;
2562;SDS011;1291;51.420;6.970;2022-09-24T16:57:12;11.73;;;9.95;;
2562;SDS011;1291;51.420;6.970;2022-09-24T16:59:38;11.38;;;10.15;;
2562;SDS011;1291;51.420;6.970;2022-09-24T17:02:04;11.55;;;10.20;;
2562;SDS011;1291;51.420;6.970;2022-09-24T17:04:32;11.40;;;9.63;;
2562;SDS011;1291;51.420;6.970;2022-09-24T17:06:57;11.63;;;9.43;;
2562;SDS011;1291;51.420;6.970;2022-09-24T17:09:26;10.95;;;9.85;;
2562;SDS011;1291;51.420;6.970;2022-09-24T17:12:10;11.88;;;10.57;;
2562;SDS011;1291;51.420;6.970;2022-09-24T17:14:36;11.57;;;9.60;;
2562;SDS011;1291;51.420;6.970;2022-09-24T17:17:01;12.68;;;10.77;;
2562;SDS011;1291;51.420;6.970;2022-09-24T17:19:27;13.88;;;10.43;;
2562;SDS011;1291;51.420;6.970;2022-09-24T17:21:52;11.23;;;10.07;;
2562;SDS011;1291;51.420;6.970;2022-09-24T17:24:18;11.50;;;10.25;;
2562;SDS011;1291;51.420;6.970;2022-09-24T17:26:44;12.40;;;10.63;;
2562;SDS011;1291;51.420;6.970;2022-09-24T17:29:10;12.10;;;10.38;;
2562;SDS011;1291;51.420;6.970;2022-09-24T17:31:42;12.75;;;10.30;;
2562;SDS011;1291;51.420;6.970;2022-09-24T17:34:08;12.73;;;10.68;;
2562;SDS011;1291;51.420;6.970;2022-09-24T17:36:36;14.27;;;11.75;;
2562;SDS011;1291;51.420;6.970;2022-09-24T17:39:01;12.48;;;10.95;;
2562;SDS011;1291;51.420;6.970;2022-09-24T17:41:29;13.50;;;11.02;;
2562;SDS011;1291;51.420;6.970;2022-09-24T17:43:56;13.20;;;10.55;;
2562;SDS011;1291;51.420;6.970;2022-09-24T17:46:23;13.30;;;10.60;;
2562;SDS011;1291;51.420;6.970;2022-09-24T17:48:52;13.77;;;11.05;;
2562;SDS011;1291;51.420;6.970;2022-09-24T17:51:21;13.55;;;10.77;;
2562;SDS011;1291;51.420;6.970;2022-09-24T17:53:56;12.43;;;10.93;;
2562;SDS011;1291;51.420;6.970;2022-09-24T17:56:24;14.93;;;11.32;;
2562;SDS011;1291;51.420;6.970;2022-09-24T17:58:52;11.98;;;10.68;;
2562;SDS011;1291;51.420;6.970;2022-09-24T18:01:20;14.27;;;11.43;;
2562;SDS011;1291;51.420;6.970;2022-09-24T18:03:55;16.05;;;10.82;;